Northglenn, Colorado
Current Conditions -  °F | °C
As of 4:47 PM on Sunday 23 Nov 2014 (Local Time) from KBJC Reporting Station
Rain Showers Rain Showers  
Wind Chill: 26°   Ceiling: 6000
Heat Index: 34°   Visibility: 20mi
Dew Point: 19°   Wind: 9mph
Humidity: 56%   Direction: 340°NNW
Pressure: 29.88"   Gusts: NA
Location:  39.91°N, 104.98°W
Report Text: KBJC 232347Z 34008KT 20SM VCSH FEW004 SCT009 BKN060 01/M07 A2988
Loading
Personal Weather Stations






























Interactive Weather Map New forecast layout! Learn more

10-Day Weather Forecast

Advertisements
Track Severe Weather on mobile